createdAt,value
2018-07-30T00:01:22.506Z,13.65
2018-07-30T00:03:51.017Z,14.25
2018-07-30T00:06:19.769Z,13.55
2018-07-30T00:08:48.241Z,13.35
2018-07-30T00:11:16.717Z,13.60
2018-07-30T00:13:45.485Z,13.45
2018-07-30T00:16:13.912Z,14.75
2018-07-30T00:18:42.358Z,13.95
2018-07-30T00:21:10.929Z,14.63
2018-07-30T00:23:39.613Z,13.35
2018-07-30T00:26:08.153Z,14.45
2018-07-30T00:28:36.701Z,14.18
2018-07-30T00:31:05.143Z,12.80
2018-07-30T00:33:33.609Z,14.60
2018-07-30T00:36:03.135Z,12.47
2018-07-30T00:38:31.581Z,14.05
2018-07-30T00:41:00.316Z,13.58
2018-07-30T00:43:29.153Z,13.03
2018-07-30T00:45:57.587Z,13.30
2018-07-30T00:48:26.127Z,12.82
2018-07-30T00:50:54.199Z,12.88
2018-07-30T00:53:22.661Z,12.88
2018-07-30T00:55:50.281Z,13.13
2018-07-30T00:58:19.705Z,13.00
2018-07-30T01:00:51.124Z,13.18
2018-07-30T01:03:19.585Z,12.95
2018-07-30T01:05:48.138Z,12.40
2018-07-30T01:08:16.577Z,12.98
2018-07-30T01:10:45.041Z,12.63
2018-07-30T01:13:13.584Z,12.95
2018-07-30T01:15:42.553Z,13.93
2018-07-30T01:18:11.235Z,14.03
2018-07-30T01:20:40.392Z,12.93
2018-07-30T01:23:09.462Z,14.07
2018-07-30T01:25:38.317Z,13.93
2018-07-30T01:28:07.309Z,14.25
2018-07-30T01:30:35.757Z,13.03
2018-07-30T01:33:04.350Z,14.33
2018-07-30T01:35:33.395Z,13.15
2018-07-30T01:38:01.978Z,14.00
2018-07-30T01:40:30.442Z,13.08
2018-07-30T01:42:59.483Z,12.78
2018-07-30T01:45:27.962Z,13.53
2018-07-30T01:47:56.437Z,12.53
2018-07-30T01:50:25.123Z,11.93
2018-07-30T01:52:53.579Z,12.35
2018-07-30T01:55:22.118Z,12.40
2018-07-30T01:57:50.877Z,14.13
2018-07-30T02:00:19.333Z,14.33
2018-07-30T02:02:47.793Z,15.15
2018-07-30T02:05:16.977Z,14.70
2018-07-30T02:07:45.548Z,15.20
2018-07-30T02:10:13.986Z,14.87
2018-07-30T02:12:43.037Z,14.55
2018-07-30T02:15:14.494Z,14.50
2018-07-30T02:17:42.962Z,14.30
2018-07-30T02:20:11.919Z,12.93
2018-07-30T02:22:40.369Z,14.00
2018-07-30T02:25:09.433Z,13.45
2018-07-30T02:27:38.275Z,13.53
2018-07-30T02:30:07.998Z,12.47
2018-07-30T02:32:36.838Z,12.58
2018-07-30T02:35:07.657Z,12.93
2018-07-30T02:37:36.250Z,11.80
2018-07-30T02:40:05.529Z,12.07
2018-07-30T02:42:34.994Z,12.40
2018-07-30T02:45:03.629Z,11.90
2018-07-30T02:47:32.149Z,11.68
2018-07-30T02:50:01.359Z,11.78
2018-07-30T02:52:29.865Z,12.60
2018-07-30T02:54:58.397Z,12.20
2018-07-30T02:57:27.431Z,12.98
2018-07-30T02:59:55.985Z,12.58
2018-07-30T03:02:24.458Z,13.25
2018-07-30T03:04:53.417Z,12.98
2018-07-30T03:07:21.857Z,12.45
2018-07-30T03:09:50.371Z,13.22
2018-07-30T03:12:19.527Z,13.20
2018-07-30T03:14:48.047Z,14.03
2018-07-30T03:17:16.794Z,13.75
2018-07-30T03:19:45.835Z,14.47
2018-07-30T03:22:14.409Z,14.68
2018-07-30T03:24:42.892Z,13.80
2018-07-30T03:27:11.561Z,14.18
2018-07-30T03:29:40.105Z,15.28
2018-07-30T03:32:08.585Z,15.50
2018-07-30T03:34:38.261Z,16.25
2018-07-30T03:37:06.710Z,16.45
2018-07-30T03:39:35.297Z,16.57
2018-07-30T03:42:04.366Z,16.32
2018-07-30T03:44:32.944Z,15.65
2018-07-30T03:47:01.433Z,16.23
2018-07-30T03:49:30.089Z,16.37
2018-07-30T03:51:58.682Z,15.70
2018-07-30T03:54:27.229Z,15.65
2018-07-30T03:56:55.855Z,15.10
2018-07-30T03:59:24.594Z,14.95
2018-07-30T04:01:53.074Z,14.78
2018-07-30T04:04:22.169Z,14.28
2018-07-30T04:06:50.692Z,15.20
2018-07-30T04:09:19.206Z,13.93
2018-07-30T04:11:47.861Z,14.87
2018-07-30T04:14:16.345Z,15.40
2018-07-30T04:16:50.220Z,15.10
2018-07-30T04:19:19.209Z,14.45
2018-07-30T04:21:47.777Z,14.23
2018-07-30T04:24:16.577Z,14.43
2018-07-30T04:26:46.334Z,15.00
2018-07-30T04:29:15.505Z,14.87
2018-07-30T04:31:44.578Z,14.53
2018-07-30T04:34:13.045Z,15.30
2018-07-30T04:36:41.491Z,14.18
2018-07-30T04:39:13.448Z,14.20
2018-07-30T04:41:42.417Z,14.30
2018-07-30T04:44:10.915Z,14.65
2018-07-30T04:46:39.578Z,15.15
2018-07-30T04:49:08.043Z,15.13
2018-07-30T04:51:37.132Z,13.90
2018-07-30T04:54:06.281Z,13.58
2018-07-30T04:56:35.068Z,13.72
2018-07-30T04:59:04.071Z,13.43
2018-07-30T05:01:33.357Z,14.23
2018-07-30T05:04:01.818Z,13.08
2018-07-30T05:06:30.286Z,13.70
2018-07-30T05:08:58.914Z,12.70
2018-07-30T05:11:27.388Z,13.35
2018-07-30T05:13:55.833Z,13.62
2018-07-30T05:16:24.795Z,13.08
2018-07-30T05:18:53.264Z,14.10
2018-07-30T05:21:21.721Z,13.80
2018-07-30T05:23:50.635Z,14.07
2018-07-30T05:26:19.061Z,13.78
2018-07-30T05:28:47.510Z,14.43
2018-07-30T05:31:16.305Z,12.90
2018-07-30T05:33:44.777Z,12.60
2018-07-30T05:36:13.315Z,13.05
2018-07-30T05:38:42.102Z,12.10
2018-07-30T05:41:10.551Z,12.50
2018-07-30T05:43:39.001Z,11.73
2018-07-30T05:46:07.763Z,12.20
2018-07-30T05:48:36.207Z,11.25
2018-07-30T05:51:04.684Z,11.22
2018-07-30T05:53:33.480Z,10.95
2018-07-30T05:56:01.909Z,9.95
2018-07-30T05:58:30.365Z,10.53
2018-07-30T06:00:59.678Z,10.65
2018-07-30T06:03:28.957Z,10.75
2018-07-30T06:05:57.398Z,10.65
2018-07-30T06:08:26.327Z,10.53
2018-07-30T06:10:54.785Z,10.08
2018-07-30T06:13:23.294Z,10.08
2018-07-30T06:15:51.949Z,10.32
2018-07-30T06:18:20.417Z,11.35
2018-07-30T06:20:49.039Z,10.18
2018-07-30T06:23:18.131Z,10.72
2018-07-30T06:25:46.599Z,10.38
2018-07-30T06:28:15.070Z,10.98
2018-07-30T06:30:43.820Z,11.30
2018-07-30T06:33:12.370Z,10.75
2018-07-30T06:35:41.034Z,11.00
2018-07-30T06:38:09.883Z,10.72
2018-07-30T06:40:38.364Z,10.32
2018-07-30T06:43:06.804Z,10.38
2018-07-30T06:45:35.646Z,10.20
2018-07-30T06:48:04.171Z,10.13
2018-07-30T06:50:32.601Z,11.40
2018-07-30T06:53:01.390Z,10.23
2018-07-30T06:55:30.817Z,10.58
2018-07-30T06:58:00.161Z,10.65
2018-07-30T07:00:30.369Z,10.00
2018-07-30T07:02:58.869Z,9.43
2018-07-30T07:05:27.851Z,10.15
2018-07-30T07:07:56.623Z,10.10
2018-07-30T07:10:25.185Z,10.85
2018-07-30T07:12:53.687Z,10.13
2018-07-30T07:15:22.326Z,10.63
2018-07-30T07:17:50.831Z,10.88
2018-07-30T07:20:19.431Z,9.75
2018-07-30T07:22:48.324Z,10.32
2018-07-30T07:25:16.858Z,10.28
2018-07-30T07:27:45.584Z,10.20
2018-07-30T07:30:14.785Z,10.50
2018-07-30T07:32:43.545Z,10.35
2018-07-30T07:35:12.670Z,11.00
2018-07-30T07:37:41.893Z,10.00
2018-07-30T07:40:10.402Z,10.00
2018-07-30T07:42:38.907Z,10.65
2018-07-30T07:45:08.172Z,9.48
2018-07-30T07:47:37.343Z,10.43
2018-07-30T07:50:06.448Z,11.63
2018-07-30T07:52:35.237Z,10.93
2018-07-30T07:55:04.665Z,10.75
2018-07-30T07:57:34.212Z,10.13
2018-07-30T08:00:03.566Z,10.35
2018-07-30T08:02:32.098Z,9.80
2018-07-30T08:05:01.472Z,9.60
2018-07-30T08:07:30.537Z,9.55
2018-07-30T08:09:58.985Z,9.25
2018-07-30T08:12:27.434Z,10.30
2018-07-30T08:14:56.624Z,9.30
2018-07-30T08:17:25.065Z,9.33
2018-07-30T08:19:53.542Z,9.60
2018-07-30T08:22:22.574Z,9.70
2018-07-30T08:24:51.022Z,9.45
2018-07-30T08:27:19.486Z,9.35
2018-07-30T08:29:48.458Z,10.00
2018-07-30T08:32:17.321Z,9.95
2018-07-30T08:34:45.802Z,9.65
2018-07-30T08:37:15.077Z,8.73
2018-07-30T08:39:43.533Z,8.98
2018-07-30T08:42:12.058Z,9.38
2018-07-30T08:44:41.123Z,9.25
2018-07-30T08:47:09.868Z,9.93
2018-07-30T08:49:38.682Z,9.50
2018-07-30T08:52:07.798Z,9.78
2018-07-30T08:54:36.373Z,9.30
2018-07-30T08:57:04.908Z,9.55
2018-07-30T08:59:33.855Z,9.40
2018-07-30T09:02:02.415Z,9.10
2018-07-30T09:04:30.897Z,9.80
2018-07-30T09:06:59.561Z,10.10
2018-07-30T09:09:28.011Z,8.90
2018-07-30T09:11:56.489Z,8.60
2018-07-30T09:14:25.134Z,9.55
2018-07-30T09:16:53.588Z,8.20
2018-07-30T09:19:22.126Z,6.17
2018-07-30T09:21:51.401Z,6.50
2018-07-30T09:24:19.840Z,7.42
2018-07-30T09:26:48.345Z,6.50
2018-07-30T09:29:17.165Z,7.03
2018-07-30T09:31:45.615Z,7.42
2018-07-30T09:34:14.083Z,7.33
2018-07-30T09:36:43.212Z,8.30
2018-07-30T09:39:12.659Z,7.80
2018-07-30T09:41:41.157Z,7.62
2018-07-30T09:44:10.497Z,7.40
2018-07-30T09:46:38.941Z,7.87
2018-07-30T09:49:07.465Z,7.30
2018-07-30T09:51:37.165Z,7.60
2018-07-30T09:54:06.351Z,7.45
2018-07-30T09:56:35.107Z,7.20
2018-07-30T09:59:03.809Z,7.55
2018-07-30T10:01:32.241Z,8.50
2018-07-30T10:04:01.317Z,8.70
2018-07-30T10:06:30.331Z,7.30
2018-07-30T10:08:58.873Z,7.10
2018-07-30T10:11:27.607Z,7.30
2018-07-30T10:13:56.208Z,6.92
2018-07-30T10:16:24.673Z,9.98
2018-07-30T10:18:53.242Z,7.03
2018-07-30T10:21:22.008Z,6.78
2018-07-30T10:23:50.476Z,7.20
2018-07-30T10:26:18.923Z,7.00
2018-07-30T10:28:48.068Z,7.40
2018-07-30T10:31:16.645Z,9.63
2018-07-30T10:33:45.086Z,6.90
2018-07-30T10:36:13.809Z,7.08
2018-07-30T10:38:42.385Z,7.33
2018-07-30T10:41:10.932Z,6.22
2018-07-30T10:43:39.923Z,7.40
2018-07-30T10:46:09.093Z,7.08
2018-07-30T10:48:37.560Z,8.03
2018-07-30T10:51:06.225Z,7.05
2018-07-30T10:53:34.975Z,7.00
2018-07-30T10:56:03.496Z,7.05
2018-07-30T10:58:32.589Z,6.53
2018-07-30T11:01:01.108Z,6.10
2018-07-30T11:03:30.134Z,6.97
2018-07-30T11:05:58.757Z,7.80
2018-07-30T11:08:27.458Z,6.90
2018-07-30T11:10:55.983Z,7.45
2018-07-30T11:13:24.861Z,7.12
2018-07-30T11:15:53.450Z,7.10
2018-07-30T11:18:22.246Z,7.72
2018-07-30T11:20:51.377Z,8.35
2018-07-30T11:23:19.897Z,7.83
2018-07-30T11:25:48.396Z,7.25
2018-07-30T11:28:17.142Z,7.53
2018-07-30T11:30:46.221Z,7.97
2018-07-30T11:33:14.894Z,7.47
2018-07-30T11:35:43.796Z,7.30
2018-07-30T11:38:12.261Z,6.83
2018-07-30T11:40:40.804Z,6.83
2018-07-30T11:43:09.601Z,6.97
2018-07-30T11:45:38.105Z,6.95
2018-07-30T11:48:06.642Z,6.85
2018-07-30T11:50:35.361Z,7.53
2018-07-30T11:53:03.876Z,6.65
2018-07-30T11:55:32.337Z,7.22
2018-07-30T11:58:01.646Z,6.45
2018-07-30T12:00:30.613Z,6.80
2018-07-30T12:02:59.053Z,6.60
2018-07-30T12:05:27.689Z,6.55
2018-07-30T12:07:56.329Z,7.42
2018-07-30T12:10:24.832Z,7.10
2018-07-30T12:12:54.073Z,7.33
2018-07-30T12:15:22.529Z,7.60
2018-07-30T12:17:51.072Z,7.50
2018-07-30T12:20:20.166Z,8.95
2018-07-30T12:22:48.972Z,7.40
2018-07-30T12:25:17.439Z,7.92
2018-07-30T12:27:46.120Z,7.45
2018-07-30T12:30:14.764Z,7.28
2018-07-30T12:32:43.189Z,6.62
2018-07-30T12:35:12.619Z,6.90
2018-07-30T12:37:41.161Z,7.45
2018-07-30T12:40:09.605Z,8.15
2018-07-30T12:42:38.463Z,8.13
2018-07-30T12:45:07.048Z,7.97
2018-07-30T12:47:35.521Z,8.10
2018-07-30T12:50:04.476Z,7.10
2018-07-30T12:52:33.097Z,7.12
2018-07-30T12:55:01.525Z,7.37
2018-07-30T12:57:30.467Z,8.38
2018-07-30T12:59:58.947Z,7.08
2018-07-30T13:02:27.427Z,7.55
2018-07-30T13:04:56.998Z,7.20
2018-07-30T13:07:25.465Z,7.87
2018-07-30T13:09:54.161Z,7.67
2018-07-30T13:12:23.132Z,7.47
2018-07-30T13:14:51.598Z,8.90
2018-07-30T13:17:20.053Z,7.65
2018-07-30T13:19:48.725Z,7.25
2018-07-30T13:22:17.213Z,7.60
2018-07-30T13:24:45.725Z,6.80
2018-07-30T13:27:14.384Z,6.62
2018-07-30T13:29:42.887Z,7.62
2018-07-30T13:32:11.449Z,6.90
2018-07-30T13:34:40.389Z,7.03
2018-07-30T13:37:08.849Z,6.92
2018-07-30T13:39:37.385Z,7.20
2018-07-30T13:42:06.190Z,6.75
2018-07-30T13:44:34.694Z,6.95
2018-07-30T13:47:03.236Z,8.03
2018-07-30T13:49:31.909Z,7.33
2018-07-30T13:52:00.335Z,7.10
2018-07-30T13:54:30.055Z,7.50
2018-07-30T13:56:59.838Z,6.45
2018-07-30T13:59:28.316Z,7.87
2018-07-30T14:01:56.873Z,7.58
2018-07-30T14:04:25.469Z,7.60
2018-07-30T14:06:53.990Z,7.05
2018-07-30T14:09:22.937Z,6.95
2018-07-30T14:11:51.471Z,6.67
2018-07-30T14:14:20.090Z,6.42
2018-07-30T14:16:48.561Z,6.65
2018-07-30T14:19:17.387Z,6.00
2018-07-30T14:21:45.819Z,7.12
2018-07-30T14:24:14.445Z,6.75
2018-07-30T14:26:43.386Z,6.28
2018-07-30T14:29:11.899Z,6.50
2018-07-30T14:31:40.513Z,6.37
2018-07-30T14:34:09.077Z,6.15
2018-07-30T14:36:37.625Z,5.97
2018-07-30T14:39:08.677Z,6.65
2018-07-30T14:41:38.020Z,6.72
2018-07-30T14:44:06.641Z,8.55
2018-07-30T14:46:36.100Z,6.10
2018-07-30T14:49:04.775Z,6.75
2018-07-30T14:51:33.283Z,6.50
2018-07-30T14:54:02.175Z,6.75
2018-07-30T14:56:30.993Z,6.42
2018-07-30T14:58:59.939Z,6.90
2018-07-30T15:01:28.525Z,6.70
2018-07-30T15:03:57.039Z,6.30
2018-07-30T15:06:25.565Z,6.22
2018-07-30T15:08:55.513Z,6.28
2018-07-30T15:11:24.112Z,5.50
2018-07-30T15:13:52.690Z,5.47
2018-07-30T15:16:22.107Z,5.70
2018-07-30T15:18:50.628Z,5.90
2018-07-30T15:21:19.114Z,6.12
2018-07-30T15:23:47.842Z,6.25
2018-07-30T15:26:16.810Z,5.80
2018-07-30T15:28:45.278Z,6.37
2018-07-30T15:31:13.881Z,6.92
2018-07-30T15:33:42.414Z,7.58
2018-07-30T15:36:10.871Z,8.15
2018-07-30T15:38:39.622Z,8.08
2018-07-30T15:41:08.246Z,8.90
2018-07-30T15:43:36.698Z,8.88
2018-07-30T15:46:05.277Z,8.50
2018-07-30T15:48:34.670Z,9.03
2018-07-30T15:51:03.491Z,9.38
2018-07-30T15:53:32.123Z,9.43
2018-07-30T15:56:01.925Z,9.20
2018-07-30T15:58:30.492Z,9.50
2018-07-30T16:00:59.020Z,9.13
2018-07-30T16:03:27.947Z,9.38
2018-07-30T16:05:56.529Z,9.50
2018-07-30T16:08:25.497Z,9.25
2018-07-30T16:10:55.296Z,9.63
2018-07-30T16:13:23.893Z,9.78
2018-07-30T16:15:52.433Z,9.35
2018-07-30T16:18:20.997Z,9.43
2018-07-30T16:20:49.530Z,9.38
2018-07-30T16:23:18.083Z,9.98
2018-07-30T16:25:46.590Z,10.13
2018-07-30T16:28:15.049Z,9.83
2018-07-30T16:30:44.726Z,9.63
2018-07-30T16:33:13.259Z,10.10
2018-07-30T16:35:43.474Z,9.43
2018-07-30T16:38:12.654Z,10.13
2018-07-30T16:40:41.363Z,9.88
2018-07-30T16:43:09.858Z,11.00
2018-07-30T16:45:38.481Z,10.25
2018-07-30T16:48:07.730Z,9.50
2018-07-30T16:50:36.317Z,9.55
2018-07-30T16:53:04.841Z,10.78
2018-07-30T16:55:34.029Z,10.68
2018-07-30T16:58:02.508Z,9.70
2018-07-30T17:00:31.537Z,9.23
2018-07-30T17:03:01.007Z,10.08
2018-07-30T17:05:29.565Z,9.73
2018-07-30T17:07:58.027Z,10.20
2018-07-30T17:10:26.817Z,9.23
2018-07-30T17:12:55.613Z,8.68
2018-07-30T17:15:24.193Z,8.98
2018-07-30T17:17:53.463Z,9.15
2018-07-30T17:20:22.076Z,8.78
2018-07-30T17:22:50.501Z,8.55
2018-07-30T17:25:19.236Z,8.20
2018-07-30T17:27:47.729Z,9.13
2018-07-30T17:30:16.902Z,9.50
2018-07-30T17:32:46.155Z,8.33
2018-07-30T17:35:14.713Z,8.63
2018-07-30T17:37:43.185Z,8.50
2018-07-30T17:40:12.256Z,8.70
2018-07-30T17:42:40.739Z,8.15
2018-07-30T17:45:12.113Z,8.65
2018-07-30T17:47:40.921Z,9.63
2018-07-30T17:50:10.035Z,9.63
2018-07-30T17:52:45.471Z,9.48
2018-07-30T17:55:15.858Z,9.25
2018-07-30T17:57:44.309Z,8.63
2018-07-30T18:00:13.119Z,7.40
2018-07-30T18:02:41.889Z,7.78
2018-07-30T18:05:10.345Z,8.23
2018-07-30T18:07:48.379Z,7.70
2018-07-30T18:10:16.921Z,7.80
2018-07-30T18:12:46.169Z,9.58
2018-07-30T18:15:17.622Z,7.12
2018-07-30T18:17:46.945Z,7.95
2018-07-30T18:20:15.595Z,12.13
2018-07-30T18:22:44.592Z,8.10
2018-07-30T18:25:13.106Z,9.63
2018-07-30T18:27:41.560Z,10.53
2018-07-30T18:30:10.497Z,9.53
2018-07-30T18:32:39.281Z,9.90
2018-07-30T18:35:08.944Z,9.25
2018-07-30T18:37:38.090Z,10.23
2018-07-30T18:40:06.592Z,9.53
2018-07-30T18:42:35.070Z,10.32
2018-07-30T18:45:04.455Z,9.95
2018-07-30T18:47:32.970Z,9.95
2018-07-30T18:50:01.409Z,9.88
2018-07-30T18:52:31.428Z,9.60
2018-07-30T18:55:00.953Z,9.38
2018-07-30T18:57:29.487Z,9.30
2018-07-30T18:59:58.101Z,9.13
2018-07-30T19:02:26.600Z,9.38
2018-07-30T19:04:55.073Z,9.13
2018-07-30T19:07:23.941Z,8.88
2018-07-30T19:09:52.430Z,8.90
2018-07-30T19:12:20.908Z,9.08
2018-07-30T19:14:49.595Z,8.63
2018-07-30T19:17:18.061Z,8.68
2018-07-30T19:19:46.921Z,8.83
2018-07-30T19:22:15.460Z,8.65
2018-07-30T19:24:44.871Z,8.95
2018-07-30T19:27:13.339Z,8.73
2018-07-30T19:29:42.031Z,8.70
2018-07-30T19:32:10.774Z,8.78
2018-07-30T19:34:39.238Z,9.40
2018-07-30T19:37:08.131Z,8.70
2018-07-30T19:39:36.613Z,8.38
2018-07-30T19:42:05.127Z,9.03
2018-07-30T19:44:34.007Z,9.43
2018-07-30T19:47:02.665Z,8.70
2018-07-30T19:49:31.092Z,8.38
2018-07-30T19:52:00.490Z,9.20
2018-07-30T19:54:29.733Z,9.05
2018-07-30T19:56:59.026Z,8.38
2018-07-30T19:59:27.678Z,9.73
2018-07-30T20:01:56.201Z,9.10
2018-07-30T20:04:24.710Z,9.28
2018-07-30T20:06:53.692Z,9.35
2018-07-30T20:09:22.220Z,9.58
2018-07-30T20:11:50.766Z,8.80
2018-07-30T20:14:19.889Z,9.28
2018-07-30T20:16:48.383Z,12.47
2018-07-30T20:19:17.797Z,10.43
2018-07-30T20:21:46.861Z,9.53
2018-07-30T20:24:15.367Z,10.20
2018-07-30T20:26:43.816Z,10.03
2018-07-30T20:29:12.612Z,9.20
2018-07-30T20:31:41.252Z,9.08
2018-07-30T20:34:09.718Z,9.80
2018-07-30T20:36:38.730Z,9.75
2018-07-30T20:39:11.347Z,9.40
2018-07-30T20:41:40.410Z,9.13
2018-07-30T20:44:08.895Z,9.00
2018-07-30T20:46:37.709Z,8.90
2018-07-30T20:49:06.866Z,8.83
2018-07-30T20:51:35.341Z,9.95
2018-07-30T20:54:04.237Z,9.13
2018-07-30T20:56:33.373Z,7.33
2018-07-30T20:59:02.332Z,7.75
2018-07-30T21:01:30.782Z,7.78
2018-07-30T21:04:00.357Z,7.55
2018-07-30T21:06:28.997Z,7.58
2018-07-30T21:08:57.606Z,7.60
2018-07-30T21:11:26.964Z,7.50
2018-07-30T21:13:55.429Z,7.22
2018-07-30T21:16:24.257Z,7.90
2018-07-30T21:18:53.075Z,7.75
2018-07-30T21:21:21.926Z,7.22
2018-07-30T21:23:50.533Z,7.92
2018-07-30T21:26:19.752Z,7.83
2018-07-30T21:28:48.270Z,7.53
2018-07-30T21:31:16.776Z,7.80
2018-07-30T21:33:45.809Z,7.90
2018-07-30T21:36:14.353Z,7.75
2018-07-30T21:38:42.811Z,8.13
2018-07-30T21:41:11.873Z,7.55
2018-07-30T21:43:40.375Z,7.95
2018-07-30T21:46:08.901Z,7.87
2018-07-30T21:48:37.809Z,7.62
2018-07-30T21:51:06.839Z,7.75
2018-07-30T21:53:35.499Z,7.83
2018-07-30T21:56:04.283Z,8.33
2018-07-30T21:58:32.917Z,8.05
2018-07-30T22:01:01.487Z,7.80
2018-07-30T22:03:30.945Z,8.48
2018-07-30T22:06:01.233Z,8.18
2018-07-30T22:08:30.621Z,7.92
2018-07-30T22:10:59.526Z,8.15
2018-07-30T22:13:28.025Z,8.58
2018-07-30T22:15:56.460Z,8.43
2018-07-30T22:18:25.217Z,8.03
2018-07-30T22:20:54.370Z,8.30
2018-07-30T22:23:23.107Z,8.53
2018-07-30T22:25:52.392Z,8.20
2018-07-30T22:28:20.881Z,8.15
2018-07-30T22:30:49.359Z,9.48
2018-07-30T22:33:18.923Z,8.35
2018-07-30T22:35:47.465Z,8.68
2018-07-30T22:38:15.909Z,8.90
2018-07-30T22:40:44.925Z,9.25
2018-07-30T22:43:13.451Z,9.35
2018-07-30T22:45:41.938Z,9.38
2018-07-30T22:48:10.677Z,9.88
2018-07-30T22:50:39.165Z,10.18
2018-07-30T22:53:07.641Z,9.95
2018-07-30T22:55:36.938Z,10.35
2018-07-30T22:58:06.018Z,11.18
2018-07-30T23:00:34.836Z,9.70
2018-07-30T23:03:04.013Z,10.95
2018-07-30T23:05:32.508Z,11.08
2018-07-30T23:08:01.387Z,11.88
2018-07-30T23:10:30.158Z,11.97
2018-07-30T23:12:58.713Z,11.63
2018-07-30T23:15:27.623Z,11.95
2018-07-30T23:17:56.470Z,12.43
2018-07-30T23:20:24.934Z,12.95
2018-07-30T23:22:53.385Z,12.15
2018-07-30T23:25:22.490Z,12.65
2018-07-30T23:27:51.121Z,12.80
2018-07-30T23:30:19.611Z,13.05
2018-07-30T23:32:48.549Z,13.35
2018-07-30T23:35:17.067Z,13.38
2018-07-30T23:37:45.617Z,13.75
2018-07-30T23:40:16.190Z,13.28
2018-07-30T23:42:44.677Z,13.48
2018-07-30T23:45:13.126Z,13.25
2018-07-30T23:47:41.934Z,14.53
2018-07-30T23:50:10.510Z,13.53
2018-07-30T23:52:38.949Z,13.25
2018-07-30T23:55:07.998Z,13.50
2018-07-30T23:57:36.497Z,13.83
